createdAt,value
2022-10-11T00:02:42.597Z,8.9
2022-10-11T00:05:42.603Z,8.8
2022-10-11T00:08:42.610Z,8.8
2022-10-11T00:11:42.618Z,8.8
2022-10-11T00:14:42.622Z,8.8
2022-10-11T00:17:42.655Z,8.7
2022-10-11T00:20:42.635Z,8.7
2022-10-11T00:23:42.642Z,8.7
2022-10-11T00:26:46.504Z,8.7
2022-10-11T00:29:42.656Z,8.7
2022-10-11T00:32:42.667Z,8.7
2022-10-11T00:35:42.690Z,8.7
2022-10-11T00:38:42.681Z,8.7
2022-10-11T00:41:42.678Z,8.7
2022-10-11T00:44:42.696Z,8.6
2022-10-11T00:47:42.690Z,8.6
2022-10-11T00:50:42.701Z,8.6
2022-10-11T00:53:42.733Z,8.5
2022-10-11T00:56:42.713Z,8.5
2022-10-11T00:59:42.733Z,8.4
2022-10-11T01:02:42.732Z,8.4
2022-10-11T01:05:42.736Z,8.4
2022-10-11T01:08:42.746Z,8.4
2022-10-11T01:11:42.778Z,8.4
2022-10-11T01:14:42.763Z,8.3
2022-10-11T01:17:42.771Z,8.3
2022-10-11T01:20:42.805Z,8.2
2022-10-11T01:23:42.775Z,8.2
2022-10-11T01:26:42.782Z,8.2
2022-10-11T01:29:42.810Z,8.1
2022-10-11T01:32:42.795Z,8.1
2022-10-11T01:35:42.803Z,8.1
2022-10-11T01:38:42.812Z,8.1
2022-10-11T01:41:42.812Z,8
2022-10-11T01:44:42.821Z,8.1
2022-10-11T01:47:42.851Z,8
2022-10-11T01:50:42.834Z,8
2022-10-11T01:53:42.849Z,7.9
2022-10-11T01:56:42.852Z,7.9
2022-10-11T01:59:42.864Z,7.9
2022-10-11T02:02:42.871Z,7.9
2022-10-11T02:05:42.904Z,7.8
2022-10-11T02:08:42.882Z,7.8
2022-10-11T02:11:42.891Z,7.8
2022-10-11T02:14:42.894Z,7.8
2022-10-11T02:17:42.911Z,7.7
2022-10-11T02:20:42.920Z,7.6
2022-10-11T02:23:42.944Z,7.6
2022-10-11T02:26:42.928Z,7.5
2022-10-11T02:29:42.942Z,7.6
2022-10-11T02:32:42.946Z,7.5
2022-10-11T02:35:42.955Z,7.6
2022-10-11T02:38:42.960Z,7.6
2022-10-11T02:41:42.991Z,7.6
2022-10-11T02:44:42.979Z,7.6
2022-10-11T02:47:42.987Z,7.6
2022-10-11T02:50:42.998Z,7.5
2022-10-11T02:53:43.003Z,7.5
2022-10-11T02:56:43.268Z,7.5
2022-10-11T02:59:43.045Z,7.4
2022-10-11T03:02:43.034Z,7.4
2022-10-11T03:05:43.050Z,7.3
2022-10-11T03:08:43.059Z,7.3
2022-10-11T03:11:43.058Z,7.3
2022-10-11T03:14:43.063Z,7.2
2022-10-11T03:17:43.096Z,7.2
2022-10-11T03:20:43.085Z,7.2
2022-10-11T03:23:43.097Z,7.2
2022-10-11T03:26:43.105Z,7.2
2022-10-11T03:29:43.115Z,7.2
2022-10-11T03:32:43.113Z,7.1
2022-10-11T03:35:43.154Z,7.1
2022-10-11T03:38:43.138Z,7.1
2022-10-11T03:41:43.152Z,7.1
2022-10-11T03:44:43.173Z,7
2022-10-11T03:47:43.176Z,7
2022-10-11T03:50:43.191Z,7
2022-10-11T03:53:43.231Z,7
2022-10-11T03:56:43.212Z,7.1
2022-10-11T03:59:43.221Z,7.1
2022-10-11T04:02:43.234Z,7.1
2022-10-11T04:05:43.239Z,7.1
2022-10-11T04:08:43.256Z,7.1
2022-10-11T04:11:43.291Z,7.1
2022-10-11T04:14:43.277Z,7.1
2022-10-11T04:17:43.286Z,7
2022-10-11T04:20:43.301Z,7
2022-10-11T04:23:43.308Z,7
2022-10-11T04:26:43.311Z,6.9
2022-10-11T04:29:43.344Z,7
2022-10-11T04:32:43.335Z,7
2022-10-11T04:35:43.345Z,7
2022-10-11T04:38:43.359Z,7
2022-10-11T04:41:43.377Z,6.9
2022-10-11T04:44:43.380Z,6.9
2022-10-11T04:47:43.416Z,6.9
2022-10-11T04:50:43.405Z,6.9
2022-10-11T04:53:43.591Z,6.9
2022-10-11T04:56:43.459Z,6.8
2022-10-11T04:59:46.652Z,6.8
2022-10-11T05:02:43.453Z,6.8
2022-10-11T05:05:43.487Z,6.8
2022-10-11T05:08:43.474Z,6.8
2022-10-11T05:11:43.502Z,6.8
2022-10-11T05:14:43.497Z,6.7
2022-10-11T05:17:43.512Z,6.7
2022-10-11T05:20:43.515Z,6.8
2022-10-11T05:23:43.541Z,6.8
2022-10-11T05:26:43.547Z,6.8
2022-10-11T05:29:43.548Z,6.8
2022-10-11T05:32:43.561Z,6.7
2022-10-11T05:35:43.568Z,6.7
2022-10-11T05:38:43.584Z,6.7
2022-10-11T05:41:43.621Z,6.7
2022-10-11T05:44:43.600Z,6.7
2022-10-11T05:47:43.607Z,6.7
2022-10-11T05:50:43.623Z,6.7
2022-10-11T05:53:43.635Z,6.8
2022-10-11T05:56:43.679Z,6.8
2022-10-11T05:59:43.678Z,6.9
2022-10-11T06:02:43.667Z,7
2022-10-11T06:05:43.677Z,7
2022-10-11T06:08:43.690Z,7.1
2022-10-11T06:11:43.705Z,7.1
2022-10-11T06:14:43.708Z,7.2
2022-10-11T06:17:43.787Z,7.2
2022-10-11T06:20:43.721Z,7.3
2022-10-11T06:23:43.733Z,7.4
2022-10-11T06:26:43.763Z,7.6
2022-10-11T06:29:43.761Z,7.7
2022-10-11T06:32:43.779Z,7.9
2022-10-11T06:35:43.804Z,8.1
2022-10-11T06:38:45.126Z,8.3
2022-10-11T06:41:43.881Z,8.5
2022-10-11T06:44:43.814Z,8.7
2022-10-11T06:47:43.909Z,8.9
2022-10-11T06:50:58.922Z,9.1
2022-10-11T06:53:43.866Z,9.2
2022-10-11T06:56:43.864Z,9.4
2022-10-11T06:59:43.868Z,9.5
2022-10-11T07:02:43.876Z,9.6
2022-10-11T07:05:43.890Z,9.8
2022-10-11T07:08:43.900Z,9.9
2022-10-11T07:11:43.953Z,10.1
2022-10-11T07:14:43.946Z,10.3
2022-10-11T07:17:43.944Z,10.3
2022-10-11T07:20:43.949Z,10.5
2022-10-11T07:23:43.966Z,10.8
2022-10-11T07:26:43.977Z,11.1
2022-10-11T07:29:44.008Z,11.2
2022-10-11T07:32:43.991Z,11.5
2022-10-11T07:35:48.152Z,11.8
2022-10-11T07:38:44.040Z,11.9
2022-10-11T07:41:45.987Z,12
2022-10-11T07:44:44.039Z,12.2
2022-10-11T07:47:44.071Z,12.4
2022-10-11T07:50:44.059Z,12.5
2022-10-11T07:53:44.073Z,12.4
2022-10-11T07:56:44.123Z,12.5
2022-10-11T07:59:47.923Z,12.6
2022-10-11T08:02:44.107Z,12.8
2022-10-11T08:05:44.144Z,13.2
2022-10-11T08:08:44.134Z,13.4
2022-10-11T08:11:44.150Z,13.4
2022-10-11T08:14:44.155Z,13.3
2022-10-11T08:17:44.165Z,13.5
2022-10-11T08:20:44.179Z,13.6
2022-10-11T08:23:44.207Z,13.9
2022-10-11T08:26:44.203Z,14.1
2022-10-11T08:29:44.226Z,14.3
2022-10-11T08:32:44.223Z,14.3
2022-10-11T08:35:44.231Z,14.4
2022-10-11T08:38:44.241Z,14.4
2022-10-11T08:41:44.287Z,14.5
2022-10-11T08:45:10.353Z,14.7
2022-10-11T08:47:44.279Z,14.9
2022-10-11T08:50:44.280Z,15.1
2022-10-11T08:53:44.308Z,15.5
2022-10-11T08:56:44.315Z,15.8
2022-10-11T08:59:44.342Z,16.3
2022-10-11T09:03:06.741Z,16.3
2022-10-11T09:05:44.338Z,16.4
2022-10-11T09:08:44.344Z,16.5
2022-10-11T09:11:44.366Z,16.6
2022-10-11T09:14:44.364Z,16.7
2022-10-11T09:17:44.395Z,17
2022-10-11T09:20:44.377Z,17.4
2022-10-11T09:23:44.388Z,17.5
2022-10-11T09:26:44.408Z,17.6
2022-10-11T09:29:44.419Z,17.8
2022-10-11T09:32:44.422Z,18.1
2022-10-11T09:35:44.460Z,18.3
2022-10-11T09:38:44.441Z,18.3
2022-10-11T09:41:44.455Z,18.2
2022-10-11T09:44:44.459Z,18.4
2022-10-11T09:47:44.465Z,18.5
2022-10-11T09:50:44.483Z,18.6
2022-10-11T09:53:44.508Z,18.4
2022-10-11T09:56:44.509Z,18.3
2022-10-11T09:59:44.500Z,18.6
2022-10-11T10:02:44.510Z,18.6
2022-10-11T10:05:44.526Z,18.4
2022-10-11T10:08:44.532Z,18.3
2022-10-11T10:11:44.579Z,18.2
2022-10-11T10:14:44.545Z,18.3
2022-10-11T10:17:44.560Z,18.4
2022-10-11T10:20:44.563Z,18.5
2022-10-11T10:23:44.573Z,18.5
2022-10-11T10:26:44.588Z,18.6
2022-10-11T10:29:44.612Z,18.5
2022-10-11T10:32:48.310Z,18.5
2022-10-11T10:35:44.619Z,18.5
2022-10-11T10:38:47.509Z,18.3
2022-10-11T10:41:44.640Z,18
2022-10-11T10:44:44.634Z,18.2
2022-10-11T10:47:44.667Z,18.5
2022-10-11T10:50:44.653Z,18.6
2022-10-11T10:53:44.669Z,17.9
2022-10-11T10:56:44.674Z,17.1
2022-10-11T10:59:44.840Z,16.8
2022-10-11T11:02:44.808Z,17.2
2022-10-11T11:05:44.797Z,17.3
2022-10-11T11:08:44.699Z,17.2
2022-10-11T11:11:44.720Z,17
2022-10-11T11:14:44.709Z,17
2022-10-11T11:17:44.717Z,16.9
2022-10-11T11:20:44.725Z,16.6
2022-10-11T11:23:44.854Z,16.1
2022-10-11T11:26:44.749Z,16.1
2022-10-11T11:29:44.753Z,16.2
2022-10-11T11:32:45.772Z,16.4
2022-10-11T11:35:44.761Z,16.4
2022-10-11T11:38:44.765Z,16.2
2022-10-11T11:41:44.802Z,15.9
2022-10-11T11:44:44.769Z,16
2022-10-11T11:47:44.774Z,16.1
2022-10-11T11:50:44.781Z,16.2
2022-10-11T11:53:44.786Z,16.2
2022-10-11T11:56:44.803Z,16.4
2022-10-11T11:59:44.826Z,16.4
2022-10-11T12:02:44.798Z,16.3
2022-10-11T12:05:44.797Z,16.4
2022-10-11T12:08:44.792Z,16.5
2022-10-11T12:11:44.810Z,16.4
2022-10-11T12:14:44.796Z,16.3
2022-10-11T12:17:44.821Z,16.2
2022-10-11T12:20:44.793Z,16.1
2022-10-11T12:23:44.805Z,16.3
2022-10-11T12:26:44.823Z,16.4
2022-10-11T12:29:44.803Z,16.4
2022-10-11T12:32:44.802Z,16.4
2022-10-11T12:35:44.824Z,16.4
2022-10-11T12:38:44.804Z,16.5
2022-10-11T12:41:44.814Z,16.5
2022-10-11T12:44:44.810Z,16.5
2022-10-11T12:47:44.813Z,16.5
2022-10-11T12:50:44.813Z,16.7
2022-10-11T12:53:46.374Z,16.8
2022-10-11T12:56:44.834Z,16.9
2022-10-11T12:59:44.824Z,16.9
2022-10-11T13:02:44.817Z,16.9
2022-10-11T13:05:45.869Z,16.8
2022-10-11T13:08:44.828Z,16.5
2022-10-11T13:11:45.009Z,16.3
2022-10-11T13:14:44.831Z,16.2
2022-10-11T13:17:44.835Z,16.1
2022-10-11T13:20:44.837Z,16
2022-10-11T13:23:44.838Z,15.9
2022-10-11T13:26:44.934Z,15.8
2022-10-11T13:29:44.859Z,15.5
2022-10-11T13:32:44.891Z,15.3
2022-10-11T13:35:44.847Z,15.1
2022-10-11T13:38:44.899Z,15
2022-10-11T13:41:44.849Z,15
2022-10-11T13:44:44.843Z,14.9
2022-10-11T13:47:44.870Z,14.7
2022-10-11T13:50:44.854Z,14.5
2022-10-11T13:53:44.864Z,14.4
2022-10-11T13:56:44.879Z,14.4
2022-10-11T13:59:44.870Z,14.4
2022-10-11T14:02:44.867Z,14.4
2022-10-11T14:05:44.898Z,14.4
2022-10-11T14:08:44.872Z,14.4
2022-10-11T14:11:44.896Z,14.5
2022-10-11T14:14:44.882Z,14.5
2022-10-11T14:17:45.044Z,14.5
2022-10-11T14:20:44.887Z,14.6
2022-10-11T14:23:44.911Z,14.6
2022-10-11T14:26:44.899Z,14.6
2022-10-11T14:29:55.540Z,14.7
2022-10-11T14:32:44.898Z,14.7
2022-10-11T14:35:44.894Z,14.7
2022-10-11T14:38:44.905Z,14.6
2022-10-11T14:41:44.944Z,14.6
2022-10-11T14:44:44.907Z,14.5
2022-10-11T14:47:44.912Z,14.5
2022-10-11T14:50:44.913Z,14.5
2022-10-11T14:53:44.912Z,14.4
2022-10-11T14:56:45.078Z,14.4
2022-10-11T14:59:44.935Z,14.3
2022-10-11T15:02:44.918Z,14.3
2022-10-11T15:05:44.916Z,14.2
2022-10-11T15:08:44.920Z,14.2
2022-10-11T15:11:44.928Z,14.2
2022-10-11T15:14:44.928Z,14.2
2022-10-11T15:17:44.954Z,14.1
2022-10-11T15:20:44.933Z,14
2022-10-11T15:23:44.938Z,14
2022-10-11T15:26:44.943Z,13.9
2022-10-11T15:29:44.933Z,13.9
2022-10-11T15:32:44.939Z,13.9
2022-10-11T15:35:45.074Z,13.8
2022-10-11T15:38:44.941Z,13.7
2022-10-11T15:41:45.109Z,13.6
2022-10-11T15:44:44.940Z,13.6
2022-10-11T15:47:44.938Z,13.5
2022-10-11T15:50:44.941Z,13.4
2022-10-11T15:53:44.969Z,13.3
2022-10-11T15:56:44.956Z,13.2
2022-10-11T15:59:44.943Z,13.1
2022-10-11T16:02:44.953Z,13
2022-10-11T16:05:44.952Z,12.8
2022-10-11T16:08:44.967Z,12.7
2022-10-11T16:11:45.351Z,12.6
2022-10-11T16:14:47.280Z,12.5
2022-10-11T16:17:44.964Z,12.3
2022-10-11T16:20:44.962Z,12.2
2022-10-11T16:23:44.965Z,12.1
2022-10-11T16:26:44.976Z,12
2022-10-11T16:29:44.990Z,11.9
2022-10-11T16:32:44.970Z,11.7
2022-10-11T16:35:44.968Z,11.6
2022-10-11T16:38:44.975Z,11.5
2022-10-11T16:41:44.985Z,11.3
2022-10-11T16:44:44.970Z,11.1
2022-10-11T16:47:44.997Z,10.9
2022-10-11T16:50:45.017Z,10.8
2022-10-11T16:53:44.981Z,10.6
2022-10-11T16:56:44.998Z,10.5
2022-10-11T16:59:44.988Z,10.4
2022-10-11T17:02:44.990Z,10.2
2022-10-11T17:05:45.023Z,10
2022-10-11T17:08:44.996Z,9.9
2022-10-11T17:11:45.011Z,9.7
2022-10-11T17:14:44.996Z,9.6
2022-10-11T17:17:45.025Z,9.5
2022-10-11T17:20:45.002Z,9.4
2022-10-11T17:23:45.030Z,9.3
2022-10-11T17:26:45.027Z,9.1
2022-10-11T17:29:45.009Z,8.8
2022-10-11T17:32:45.009Z,8.6
2022-10-11T17:35:45.017Z,8.5
2022-10-11T17:38:45.019Z,8.4
2022-10-11T17:41:45.046Z,8.4
2022-10-11T17:44:45.015Z,8.2
2022-10-11T17:47:45.022Z,8.1
2022-10-11T17:50:49.725Z,7.9
2022-10-11T17:53:45.020Z,7.8
2022-10-11T17:56:45.035Z,7.6
2022-10-11T17:59:45.053Z,7.5
2022-10-11T18:02:45.029Z,7.5
2022-10-11T18:05:45.033Z,7.4
2022-10-11T18:08:45.035Z,7.4
2022-10-11T18:11:45.052Z,7.4
2022-10-11T18:14:45.040Z,7.4
2022-10-11T18:17:45.067Z,7.3
2022-10-11T18:20:45.039Z,7.3
2022-10-11T18:23:45.055Z,7.2
2022-10-11T18:26:45.058Z,7.2
2022-10-11T18:29:45.049Z,7.3
2022-10-11T18:32:45.052Z,7.3
2022-10-11T18:35:45.081Z,7.3
2022-10-11T18:38:45.055Z,7.3
2022-10-11T18:41:45.068Z,7.2
2022-10-11T18:44:45.063Z,7.1
2022-10-11T18:47:45.074Z,7.1
2022-10-11T18:50:45.058Z,7
2022-10-11T18:53:45.090Z,6.9
2022-10-11T18:56:45.140Z,6.8
2022-10-11T18:59:45.070Z,6.8
2022-10-11T19:02:45.075Z,6.7
2022-10-11T19:05:45.072Z,6.7
2022-10-11T19:08:45.082Z,6.7
2022-10-11T19:11:45.144Z,6.6
2022-10-11T19:14:45.088Z,6.6
2022-10-11T19:17:45.083Z,6.5
2022-10-11T19:20:45.087Z,6.5
2022-10-11T19:23:45.093Z,6.5
2022-10-11T19:26:45.108Z,6.5
2022-10-11T19:29:45.123Z,6.5
2022-10-11T19:32:45.093Z,6.4
2022-10-11T19:35:45.109Z,6.4
2022-10-11T19:38:45.102Z,6.3
2022-10-11T19:41:45.119Z,6.3
2022-10-11T19:44:45.110Z,6.2
2022-10-11T19:47:45.140Z,6.2
2022-10-11T19:50:45.121Z,6.2
2022-10-11T19:53:45.125Z,6.2
2022-10-11T19:56:45.140Z,6.1
2022-10-11T19:59:45.137Z,6.2
2022-10-11T20:02:45.139Z,6.1
2022-10-11T20:05:45.169Z,6.2
2022-10-11T20:08:45.152Z,6.2
2022-10-11T20:11:45.300Z,6.2
2022-10-11T20:14:45.152Z,6.2
2022-10-11T20:17:45.167Z,6.3
2022-10-11T20:20:45.166Z,6.5
2022-10-11T20:23:45.190Z,6.6
2022-10-11T20:26:45.180Z,6.6
2022-10-11T20:29:45.179Z,6.6
2022-10-11T20:32:45.260Z,6.6
2022-10-11T20:35:45.188Z,6.6
2022-10-11T20:38:45.190Z,6.5
2022-10-11T20:41:45.251Z,6.5
2022-10-11T20:44:45.188Z,6.6
2022-10-11T20:47:45.202Z,6.6
2022-10-11T20:50:45.213Z,6.6
2022-10-11T20:53:45.208Z,6.5
2022-10-11T20:56:45.246Z,6.5
2022-10-11T20:59:45.248Z,6.4
2022-10-11T21:02:45.217Z,6.3
2022-10-11T21:05:45.219Z,6.3
2022-10-11T21:08:45.228Z,6.2
2022-10-11T21:11:45.258Z,6.2
2022-10-11T21:14:45.229Z,6.1
2022-10-11T21:17:45.265Z,6
2022-10-11T21:20:45.241Z,5.9
2022-10-11T21:23:45.246Z,5.8
2022-10-11T21:26:45.260Z,5.7
2022-10-11T21:29:45.253Z,5.5
2022-10-11T21:32:45.256Z,5.5
2022-10-11T21:35:45.292Z,5.6
2022-10-11T21:38:45.282Z,5.6
2022-10-11T21:41:45.279Z,5.6
2022-10-11T21:44:45.281Z,5.6
2022-10-11T21:47:45.278Z,5.5
2022-10-11T21:50:45.294Z,5.4
2022-10-11T21:53:45.316Z,5.3
2022-10-11T21:56:45.308Z,5.2
2022-10-11T21:59:45.305Z,5.1
2022-10-11T22:02:45.306Z,5
2022-10-11T22:05:45.309Z,4.9
2022-10-11T22:08:45.312Z,4.8
2022-10-11T22:11:45.565Z,4.9
2022-10-11T22:14:45.325Z,4.9
2022-10-11T22:17:45.330Z,4.8
2022-10-11T22:20:45.341Z,4.7
2022-10-11T22:23:45.338Z,4.6
2022-10-11T22:26:45.351Z,4.5
2022-10-11T22:29:45.373Z,4.5
2022-10-11T22:32:45.352Z,4.5
2022-10-11T22:35:45.357Z,4.5
2022-10-11T22:38:45.361Z,4.6
2022-10-11T22:41:45.398Z,4.7
2022-10-11T22:44:45.366Z,4.6
2022-10-11T22:47:45.404Z,4.5
2022-10-11T22:50:45.384Z,4.4
2022-10-11T22:53:45.393Z,4.4
2022-10-11T22:56:45.408Z,4.4
2022-10-11T22:59:45.401Z,4.5
2022-10-11T23:02:45.401Z,4.3
2022-10-11T23:05:45.440Z,4.2
2022-10-11T23:08:45.410Z,4.2
2022-10-11T23:11:45.592Z,4.2
2022-10-11T23:14:45.425Z,4.2
2022-10-11T23:17:45.430Z,4.1
2022-10-11T23:20:45.435Z,3.9
2022-10-11T23:23:45.459Z,3.8
2022-10-11T23:26:45.453Z,3.8
2022-10-11T23:29:45.454Z,3.8
2022-10-11T23:32:45.458Z,3.9
2022-10-11T23:35:45.456Z,4
2022-10-11T23:38:45.473Z,4
2022-10-11T23:41:45.518Z,3.9
2022-10-11T23:44:45.474Z,3.8
2022-10-11T23:47:45.480Z,3.7
2022-10-11T23:50:45.492Z,3.7
2022-10-11T23:53:45.493Z,3.6
2022-10-11T23:56:45.660Z,3.6
2022-10-11T23:59:45.540Z,3.6
